Time;durP1;ratioP1;P1;durP2;ratioP2;P2;SDS_P1;SDS_P2;PMS_P1;PMS_P2;Temp;Humidity;BMP_temperature;BMP_pressure;BME280_temperature;BME280_humidity;BME280_pressure;Samples;Min_cycle;Max_cycle;Signal;HPM_P1;HPM_P2
2022/06/10 00:00:18;;;;;;;2.43;1.00;;;;;;;;;;5012974;28;20195;-36
2022/06/10 00:02:46;;;;;;;2.70;1.00;;;;;;;;;;5005896;28;20226;-42
2022/06/10 00:05:16;;;;;;;1.97;1.00;;;;;;;;;;5006326;28;20204;-31
2022/06/10 00:07:43;;;;;;;0.80;0.80;;;;;;;;;;5009905;28;20223;-38
2022/06/10 00:10:10;;;;;;;0.87;0.87;;;;;;;;;;5012669;28;20303;-37
2022/06/10 00:12:38;;;;;;;2.23;1.00;;;;;;;;;;4997643;28;20208;-36
2022/06/10 00:15:06;;;;;;;1.10;1.10;;;;;;;;;;5000707;28;20200;-35
2022/06/10 00:17:33;;;;;;;2.77;1.40;;;;;;;;;;4997475;28;20227;-33
2022/06/10 00:20:00;;;;;;;1.70;1.10;;;;;;;;;;5003861;28;20203;-33
2022/06/10 00:22:29;;;;;;;1.27;0.90;;;;;;;;;;5011736;28;20219;-32
2022/06/10 00:24:56;;;;;;;1.07;0.90;;;;;;;;;;5009062;28;20203;-34
2022/06/10 00:27:23;;;;;;;4.13;1.20;;;;;;;;;;4998490;28;20247;-33
2022/06/10 00:29:50;;;;;;;0.70;0.70;;;;;;;;;;4998866;28;20211;-34
2022/06/10 00:32:18;;;;;;;0.80;0.80;;;;;;;;;;4997934;28;20199;-36
2022/06/10 00:34:45;;;;;;;2.73;0.90;;;;;;;;;;4996898;28;20244;-31
2022/06/10 00:37:12;;;;;;;1.00;1.00;;;;;;;;;;5010032;28;20223;-37
2022/06/10 00:39:41;;;;;;;1.30;1.20;;;;;;;;;;5009037;28;20214;-39
2022/06/10 00:42:08;;;;;;;3.47;0.80;;;;;;;;;;5002774;28;20203;-37
2022/06/10 00:44:38;;;;;;;1.60;0.97;;;;;;;;;;5007928;28;20279;-33
2022/06/10 00:47:06;;;;;;;1.60;0.80;;;;;;;;;;5004784;28;20235;-36
2022/06/10 00:49:33;;;;;;;4.10;1.03;;;;;;;;;;5011508;28;20226;-30
2022/06/10 00:52:00;;;;;;;1.10;1.00;;;;;;;;;;5011819;28;20210;-36
2022/06/10 00:59:37;;;;;;;1.20;1.10;;;;;;;;;;4993869;28;20212;-45
2022/06/10 01:02:06;;;;;;;2.93;0.90;;;;;;;;;;5000269;28;20210;-35
2022/06/10 01:04:33;;;;;;;1.50;0.83;;;;;;;;;;5006115;28;20242;-46
2022/06/10 01:07:00;;;;;;;1.00;1.00;;;;;;;;;;4999260;28;20224;-39
2022/06/10 01:09:29;;;;;;;1.07;0.90;;;;;;;;;;4989132;28;20204;-43
2022/06/10 01:12:21;;;;;;;1.73;1.10;;;;;;;;;;4988930;28;20207;-44
2022/06/10 01:14:57;;;;;;;1.00;1.00;;;;;;;;;;4992554;28;20202;-39
2022/06/10 01:17:32;;;;;;;2.47;1.17;;;;;;;;;;4987057;28;20287;-45
2022/06/10 01:20:07;;;;;;;1.40;0.97;;;;;;;;;;4995826;28;20206;-41
2022/06/10 01:22:49;;;;;;;3.00;1.10;;;;;;;;;;4994644;28;20231;-45
2022/06/10 01:25:24;;;;;;;1.03;0.93;;;;;;;;;;4989349;28;20203;-47
2022/06/10 01:27:59;;;;;;;4.40;1.60;;;;;;;;;;5004472;28;20230;-44
2022/06/10 01:30:50;;;;;;;1.17;0.90;;;;;;;;;;5005731;28;20409;-45
2022/06/10 01:33:26;;;;;;;1.00;1.00;;;;;;;;;;4975685;28;20196;-44
2022/06/10 01:36:03;;;;;;;2.77;1.10;;;;;;;;;;5005144;28;20282;-37
2022/06/10 01:38:34;;;;;;;0.80;0.80;;;;;;;;;;4991842;28;20220;-47
2022/06/10 01:41:05;;;;;;;1.00;1.00;;;;;;;;;;4976458;28;20208;-44
2022/06/10 01:43:38;;;;;;;1.17;1.00;;;;;;;;;;4993492;28;20211;-47
2022/06/10 01:46:09;;;;;;;1.83;1.27;;;;;;;;;;4988965;28;20223;-44
2022/06/10 01:48:41;;;;;;;2.43;1.10;;;;;;;;;;4992265;28;20220;-46
2022/06/10 01:51:11;;;;;;;0.97;0.93;;;;;;;;;;5000526;28;20654;-44
2022/06/10 01:53:42;;;;;;;2.17;1.17;;;;;;;;;;5009423;28;20317;-43
2022/06/10 01:56:12;;;;;;;1.57;0.97;;;;;;;;;;4982166;28;20327;-43
2022/06/10 01:58:43;;;;;;;0.83;0.83;;;;;;;;;;4997019;28;20211;-46
2022/06/10 02:01:13;;;;;;;0.77;0.77;;;;;;;;;;5005775;28;20211;-43
2022/06/10 02:03:43;;;;;;;0.90;0.90;;;;;;;;;;4995026;28;20234;-42
2022/06/10 02:06:12;;;;;;;2.27;1.10;;;;;;;;;;4999533;28;20291;-40
2022/06/10 02:08:42;;;;;;;1.10;1.10;;;;;;;;;;5008800;28;20211;-42
2022/06/10 02:11:10;;;;;;;2.50;1.10;;;;;;;;;;4985776;28;20206;-44
2022/06/10 02:13:40;;;;;;;1.20;0.90;;;;;;;;;;4993776;28;20208;-42
2022/06/10 02:16:09;;;;;;;1.47;0.90;;;;;;;;;;4998967;28;20231;-41
2022/06/10 02:18:41;;;;;;;0.90;0.90;;;;;;;;;;4986520;28;20216;-45
2022/06/10 02:21:12;;;;;;;1.80;1.10;;;;;;;;;;4996843;28;20207;-45
2022/06/10 02:23:41;;;;;;;1.03;1.03;;;;;;;;;;5008758;28;20223;-39
2022/06/10 02:26:09;;;;;;;1.17;1.07;;;;;;;;;;4982283;28;20227;-45
2022/06/10 02:28:38;;;;;;;2.27;0.90;;;;;;;;;;4996004;28;20211;-44
2022/06/10 02:31:08;;;;;;;1.90;0.83;;;;;;;;;;4990989;28;20207;-45
2022/06/10 02:33:36;;;;;;;1.50;1.00;;;;;;;;;;4992897;28;20287;-45
2022/06/10 02:36:08;;;;;;;1.07;1.03;;;;;;;;;;5007327;28;20219;-43
2022/06/10 02:38:40;;;;;;;2.50;1.07;;;;;;;;;;5013479;28;20210;-46
2022/06/10 02:41:10;;;;;;;1.30;1.00;;;;;;;;;;4988312;28;20278;-45
2022/06/10 02:43:41;;;;;;;1.57;1.00;;;;;;;;;;4991591;28;20234;-43
2022/06/10 02:46:10;;;;;;;2.33;0.93;;;;;;;;;;4997769;28;20234;-42
2022/06/10 02:48:40;;;;;;;2.10;0.87;;;;;;;;;;4991154;28;20212;-45
2022/06/10 02:51:08;;;;;;;1.40;0.90;;;;;;;;;;5006298;28;20291;-41
2022/06/10 02:53:35;;;;;;;1.20;1.10;;;;;;;;;;5013535;28;20204;-40
2022/06/10 02:56:14;;;;;;;0.90;0.90;;;;;;;;;;4990664;28;20312;-42
2022/06/10 03:01:30;;;;;;;3.03;1.40;;;;;;;;;;5000615;28;20206;-44
2022/06/10 03:04:11;;;;;;;2.43;1.37;;;;;;;;;;4990117;28;20251;-43
2022/06/10 03:06:41;;;;;;;0.80;0.80;;;;;;;;;;4994305;28;20227;-43
2022/06/10 03:09:11;;;;;;;3.83;1.23;;;;;;;;;;4989792;28;20223;-42
2022/06/10 03:11:41;;;;;;;2.70;1.00;;;;;;;;;;4989661;28;20207;-40
2022/06/10 03:14:11;;;;;;;1.10;1.00;;;;;;;;;;4993833;28;20200;-43
2022/06/10 03:17:02;;;;;;;2.27;1.00;;;;;;;;;;4990236;28;20227;-45
2022/06/10 03:19:35;;;;;;;1.37;1.10;;;;;;;;;;4975505;28;20212;-45
2022/06/10 03:22:08;;;;;;;1.53;1.40;;;;;;;;;;5003343;28;20624;-44
2022/06/10 03:24:39;;;;;;;1.20;1.10;;;;;;;;;;4988868;28;20232;-40
2022/06/10 03:27:11;;;;;;;2.57;1.33;;;;;;;;;;5006058;28;20224;-40
2022/06/10 03:29:44;;;;;;;2.27;1.40;;;;;;;;;;4995923;28;20208;-41
2022/06/10 03:32:14;;;;;;;1.70;1.27;;;;;;;;;;4986443;28;20243;-39
2022/06/10 03:34:44;;;;;;;1.60;1.40;;;;;;;;;;4993338;28;20211;-41
2022/06/10 03:37:12;;;;;;;1.50;1.40;;;;;;;;;;5004968;28;20212;-40
2022/06/10 03:39:41;;;;;;;1.07;1.07;;;;;;;;;;4993741;28;20196;-40
2022/06/10 03:42:14;;;;;;;8.03;1.40;;;;;;;;;;4988345;28;20233;-45
2022/06/10 03:44:42;;;;;;;1.27;1.20;;;;;;;;;;4994641;28;20224;-42
2022/06/10 03:47:12;;;;;;;1.30;1.20;;;;;;;;;;4993879;28;20226;-43
2022/06/10 03:49:43;;;;;;;2.40;1.17;;;;;;;;;;4995599;28;20200;-43
2022/06/10 03:52:10;;;;;;;1.47;1.37;;;;;;;;;;5001956;28;20204;-40
2022/06/10 03:54:38;;;;;;;1.50;1.40;;;;;;;;;;4990467;28;20209;-44
2022/06/10 03:57:05;;;;;;;2.73;1.63;;;;;;;;;;4996236;28;20227;-43
2022/06/10 03:59:34;;;;;;;2.03;1.30;;;;;;;;;;4997883;28;20223;-42
2022/06/10 04:02:01;;;;;;;2.30;1.33;;;;;;;;;;4996403;28;20195;-41
2022/06/10 04:04:28;;;;;;;3.80;1.50;;;;;;;;;;4991968;28;20220;-40
2022/06/10 04:06:55;;;;;;;2.47;1.50;;;;;;;;;;4998080;28;20224;-39
2022/06/10 04:09:22;;;;;;;1.30;1.20;;;;;;;;;;4992520;28;20206;-44
2022/06/10 04:11:50;;;;;;;3.43;1.50;;;;;;;;;;4990768;28;20268;-39
2022/06/10 04:14:17;;;;;;;1.70;1.40;;;;;;;;;;4997355;28;20201;-47
2022/06/10 04:16:48;;;;;;;2.60;1.50;;;;;;;;;;4990742;28;20227;-40
2022/06/10 04:19:16;;;;;;;2.03;1.47;;;;;;;;;;5003952;28;20195;-43
2022/06/10 04:21:44;;;;;;;1.40;1.30;;;;;;;;;;5014725;28;20250;-45
2022/06/10 04:24:11;;;;;;;3.43;1.37;;;;;;;;;;5012953;28;20251;-41
2022/06/10 04:26:38;;;;;;;1.83;1.50;;;;;;;;;;4994404;28;20224;-45
2022/06/10 04:29:06;;;;;;;1.40;1.30;;;;;;;;;;5007606;28;20207;-43
2022/06/10 04:31:33;;;;;;;2.30;1.40;;;;;;;;;;5006830;28;20219;-44
2022/06/10 04:34:01;;;;;;;3.33;1.53;;;;;;;;;;4993594;28;20205;-43
2022/06/10 04:36:29;;;;;;;1.70;1.60;;;;;;;;;;5001486;28;20223;-43
2022/06/10 04:38:57;;;;;;;1.20;1.10;;;;;;;;;;4991092;28;20259;-40
2022/06/10 04:41:24;;;;;;;1.63;1.47;;;;;;;;;;4988114;28;20211;-44
2022/06/10 04:43:51;;;;;;;1.40;1.23;;;;;;;;;;5013256;28;20230;-45
2022/06/10 04:46:23;;;;;;;3.57;1.67;;;;;;;;;;5007898;28;20242;-45
2022/06/10 04:48:50;;;;;;;1.60;1.50;;;;;;;;;;4989123;28;20203;-38
2022/06/10 04:51:20;;;;;;;1.40;1.30;;;;;;;;;;4993988;28;20206;-43
2022/06/10 04:53:47;;;;;;;1.63;1.33;;;;;;;;;;4994171;28;20212;-45
2022/06/10 04:56:14;;;;;;;1.90;1.80;;;;;;;;;;4993398;28;20216;-44
2022/06/10 04:58:41;;;;;;;1.90;1.60;;;;;;;;;;4987073;28;20224;-43
2022/06/10 05:01:09;;;;;;;3.33;1.70;;;;;;;;;;4984364;28;20212;-42
2022/06/10 05:03:36;;;;;;;2.67;1.53;;;;;;;;;;4985709;28;20204;-42
2022/06/10 05:06:03;;;;;;;1.70;1.40;;;;;;;;;;5001065;28;20226;-42
2022/06/10 05:08:32;;;;;;;1.93;1.40;;;;;;;;;;4993025;28;20191;-42
2022/06/10 05:10:59;;;;;;;1.50;1.20;;;;;;;;;;4984788;28;20196;-43
2022/06/10 05:13:26;;;;;;;3.57;1.50;;;;;;;;;;4990701;28;20204;-41
2022/06/10 05:15:53;;;;;;;4.83;1.60;;;;;;;;;;4992386;28;20216;-45
2022/06/10 05:18:21;;;;;;;1.60;1.50;;;;;;;;;;4989174;28;20223;-45
2022/06/10 05:20:49;;;;;;;1.83;1.67;;;;;;;;;;5002651;28;20211;-42
2022/06/10 05:23:17;;;;;;;1.20;1.20;;;;;;;;;;4993662;28;20207;-43
2022/06/10 05:25:45;;;;;;;1.73;1.50;;;;;;;;;;4985543;28;20235;-39
2022/06/10 05:28:13;;;;;;;1.67;1.50;;;;;;;;;;4982795;28;20200;-45
2022/06/10 05:30:41;;;;;;;2.53;1.23;;;;;;;;;;5001390;28;20205;-44
2022/06/10 05:33:09;;;;;;;2.70;1.40;;;;;;;;;;4991689;28;20224;-40
2022/06/10 05:35:37;;;;;;;3.07;1.57;;;;;;;;;;5002110;28;20200;-40
2022/06/10 05:38:04;;;;;;;2.83;1.80;;;;;;;;;;5003964;28;20227;-41
2022/06/10 05:40:32;;;;;;;1.30;1.20;;;;;;;;;;4993603;28;20212;-43
2022/06/10 05:43:01;;;;;;;2.23;1.70;;;;;;;;;;4979837;28;20209;-44
2022/06/10 05:45:28;;;;;;;1.77;1.27;;;;;;;;;;4998626;28;20303;-45
2022/06/10 05:47:56;;;;;;;1.80;1.50;;;;;;;;;;4988345;28;20273;-44
2022/06/10 05:50:25;;;;;;;2.90;1.90;;;;;;;;;;4996748;28;20201;-44
2022/06/10 05:52:53;;;;;;;1.50;1.40;;;;;;;;;;4993368;28;20212;-41
2022/06/10 05:55:21;;;;;;;1.33;1.10;;;;;;;;;;4993272;28;20197;-46
2022/06/10 05:57:51;;;;;;;1.97;1.33;;;;;;;;;;4980961;28;20237;-45
2022/06/10 06:00:21;;;;;;;1.57;1.47;;;;;;;;;;5002505;28;20215;-43
2022/06/10 06:02:48;;;;;;;1.63;1.30;;;;;;;;;;4993573;28;20209;-43
2022/06/10 06:05:16;;;;;;;1.57;1.43;;;;;;;;;;5006494;28;20212;-44
2022/06/10 06:07:44;;;;;;;2.63;1.20;;;;;;;;;;5010771;28;20222;-44
2022/06/10 06:10:13;;;;;;;1.77;1.27;;;;;;;;;;5001559;28;20213;-43
2022/06/10 06:12:40;;;;;;;2.00;1.47;;;;;;;;;;5002489;28;20206;-41
2022/06/10 06:15:08;;;;;;;2.20;1.30;;;;;;;;;;4991512;28;20201;-41
2022/06/10 06:17:37;;;;;;;3.17;1.43;;;;;;;;;;4988734;28;20230;-45
2022/06/10 06:20:04;;;;;;;2.30;1.40;;;;;;;;;;4988296;28;20213;-45
2022/06/10 06:22:31;;;;;;;5.40;1.53;;;;;;;;;;5008392;28;20207;-40
2022/06/10 06:24:58;;;;;;;1.63;1.17;;;;;;;;;;5004576;28;20214;-43
2022/06/10 06:27:26;;;;;;;4.43;1.47;;;;;;;;;;4991405;28;20230;-43
2022/06/10 06:30:01;;;;;;;2.43;1.37;;;;;;;;;;5005756;28;20226;-43
2022/06/10 06:32:28;;;;;;;4.27;1.60;;;;;;;;;;4980225;28;20206;-42
2022/06/10 06:34:57;;;;;;;1.70;1.30;;;;;;;;;;4989789;28;20210;-44
2022/06/10 06:37:24;;;;;;;3.90;1.50;;;;;;;;;;4991851;28;20223;-43
2022/06/10 06:39:53;;;;;;;3.40;1.67;;;;;;;;;;4986170;28;20211;-45
2022/06/10 06:42:21;;;;;;;2.40;1.40;;;;;;;;;;4991971;28;20203;-40
2022/06/10 06:44:48;;;;;;;2.80;1.30;;;;;;;;;;4980504;28;20251;-42
2022/06/10 06:47:15;;;;;;;4.15;1.25;;;;;;;;;;4984217;28;20302;-44
2022/06/10 06:49:43;;;;;;;2.42;1.52;;;;;;;;;;4989643;28;20207;-43
2022/06/10 06:52:11;;;;;;;1.88;1.27;;;;;;;;;;4992283;28;20215;-43
2022/06/10 06:54:39;;;;;;;2.05;1.08;;;;;;;;;;4986659;28;20206;-43
2022/06/10 06:57:06;;;;;;;2.45;1.25;;;;;;;;;;4985924;28;20216;-39
2022/06/10 07:02:02;;;;;;;3.90;1.40;;;;;;;;;;5005299;28;20252;-31
2022/06/10 07:04:31;;;;;;;3.83;1.63;;;;;;;;;;5006282;28;20207;-38
2022/06/10 07:06:59;;;;;;;2.13;1.30;;;;;;;;;;5016384;28;20233;-30
2022/06/10 07:09:29;;;;;;;4.88;1.30;;;;;;;;;;5000551;28;20208;-38
2022/06/10 07:11:56;;;;;;;6.50;1.85;;;;;;;;;;4999507;28;20215;-37
2022/06/10 07:14:23;;;;;;;5.72;1.50;;;;;;;;;;5002027;28;20209;-38
2022/06/10 07:16:52;;;;;;;2.08;1.20;;;;;;;;;;5005971;28;20242;-34
2022/06/10 07:19:19;;;;;;;6.63;1.65;;;;;;;;;;4998927;28;20346;-39
2022/06/10 07:21:48;;;;;;;2.83;1.45;;;;;;;;;;4998273;28;20204;-39
2022/06/10 07:24:15;;;;;;;2.60;1.60;;;;;;;;;;5009564;28;20212;-37
2022/06/10 07:26:44;;;;;;;3.80;1.63;;;;;;;;;;4999660;28;20230;-39
2022/06/10 07:29:11;;;;;;;3.83;1.42;;;;;;;;;;5007578;28;20208;-35
2022/06/10 07:31:41;;;;;;;3.10;1.58;;;;;;;;;;5008991;28;20205;-37
2022/06/10 07:34:09;;;;;;;2.85;1.30;;;;;;;;;;5006525;28;20227;-35
2022/06/10 07:36:36;;;;;;;4.30;1.40;;;;;;;;;;5004129;28;20221;-39
2022/06/10 07:39:04;;;;;;;2.55;1.33;;;;;;;;;;5010357;28;20249;-41
2022/06/10 07:44:20;;;;;;;4.07;1.58;;;;;;;;;;5010235;28;20201;-33
2022/06/10 07:46:48;;;;;;;4.88;1.67;;;;;;;;;;5004233;28;20283;-31
2022/06/10 07:49:15;;;;;;;5.63;1.10;;;;;;;;;;5004783;28;20200;-34
2022/06/10 07:51:42;;;;;;;2.88;1.50;;;;;;;;;;5012899;28;20208;-34
2022/06/10 07:54:10;;;;;;;3.55;1.50;;;;;;;;;;5012882;28;20207;-37
2022/06/10 07:56:37;;;;;;;2.60;1.40;;;;;;;;;;5007067;28;20222;-29
2022/06/10 07:59:04;;;;;;;4.28;1.23;;;;;;;;;;5006032;28;20199;-36
2022/06/10 08:01:33;;;;;;;3.88;1.40;;;;;;;;;;5006845;28;20243;-39
2022/06/10 08:04:00;;;;;;;3.33;1.67;;;;;;;;;;5006780;28;20211;-40
2022/06/10 08:06:28;;;;;;;3.75;1.10;;;;;;;;;;5008719;28;20576;-39
2022/06/10 08:08:56;;;;;;;3.78;1.15;;;;;;;;;;5009123;28;20215;-36
2022/06/10 08:11:23;;;;;;;2.25;1.23;;;;;;;;;;5001034;28;20208;-42
2022/06/10 08:13:51;;;;;;;2.38;1.20;;;;;;;;;;5009896;28;20267;-35
2022/06/10 08:16:19;;;;;;;2.78;1.20;;;;;;;;;;5002840;28;20227;-34
2022/06/10 08:18:48;;;;;;;2.85;1.30;;;;;;;;;;4999787;28;20291;-34
2022/06/10 08:24:11;;;;;;;4.57;1.20;;;;;;;;;;4971253;28;20204;-37
2022/06/10 08:26:39;;;;;;;2.20;1.20;;;;;;;;;;4989476;28;20236;-32
2022/06/10 08:29:07;;;;;;;2.80;1.17;;;;;;;;;;5010328;28;20267;-37
2022/06/10 08:31:34;;;;;;;4.20;1.30;;;;;;;;;;5001926;28;20270;-36
2022/06/10 08:34:03;;;;;;;1.45;1.00;;;;;;;;;;5008959;28;20200;-33
2022/06/10 08:36:31;;;;;;;2.58;0.95;;;;;;;;;;5008472;28;20207;-35
2022/06/10 08:38:58;;;;;;;3.70;1.20;;;;;;;;;;5011634;28;20203;-35
2022/06/10 08:41:29;;;;;;;1.98;1.30;;;;;;;;;;5001879;28;20667;-35
2022/06/10 08:44:05;;;;;;;3.97;1.38;;;;;;;;;;5011480;28;20199;-34
2022/06/10 08:47:06;;;;;;;8.90;1.42;;;;;;;;;;5006221;28;20234;-37
2022/06/10 08:49:47;;;;;;;4.03;1.20;;;;;;;;;;5002391;28;20285;-32
2022/06/10 08:52:17;;;;;;;3.60;1.48;;;;;;;;;;4997273;28;20291;-33
2022/06/10 08:54:51;;;;;;;2.35;1.10;;;;;;;;;;4994743;28;20209;-36
2022/06/10 08:57:25;;;;;;;3.95;1.20;;;;;;;;;;5002600;28;20222;-35
2022/06/10 08:59:53;;;;;;;1.43;0.90;;;;;;;;;;5007779;28;20245;-39
2022/06/10 09:02:27;;;;;;;4.90;1.30;;;;;;;;;;4996070;28;20204;-32
2022/06/10 09:04:58;;;;;;;2.80;1.20;;;;;;;;;;5006025;28;20211;-33
2022/06/10 09:07:27;;;;;;;4.77;1.30;;;;;;;;;;5007788;28;20249;-35
2022/06/10 09:09:55;;;;;;;2.67;1.30;;;;;;;;;;5005040;28;20205;-30
2022/06/10 09:12:24;;;;;;;3.67;1.27;;;;;;;;;;4998894;28;20214;-29
2022/06/10 09:14:54;;;;;;;3.72;1.33;;;;;;;;;;5010121;28;20199;-34
2022/06/10 09:17:29;;;;;;;3.37;1.17;;;;;;;;;;5006359;28;20318;-34
2022/06/10 09:20:04;;;;;;;1.95;1.05;;;;;;;;;;4996022;28;20203;-35
2022/06/10 09:22:36;;;;;;;3.10;1.33;;;;;;;;;;4996772;28;20203;-32
2022/06/10 09:25:06;;;;;;;3.50;1.40;;;;;;;;;;5011442;28;20203;-35
2022/06/10 09:27:37;;;;;;;6.22;1.83;;;;;;;;;;4999298;28;20223;-32
2022/06/10 09:30:05;;;;;;;3.47;1.52;;;;;;;;;;5011613;28;20222;-37
2022/06/10 09:32:38;;;;;;;5.03;1.30;;;;;;;;;;5001648;28;20254;-32
2022/06/10 09:35:13;;;;;;;4.97;1.30;;;;;;;;;;4993584;28;20204;-35
2022/06/10 09:37:44;;;;;;;7.03;2.30;;;;;;;;;;5004085;28;20225;-37
2022/06/10 09:43:07;;;;;;;4.73;1.60;;;;;;;;;;5000713;28;20230;-37
2022/06/10 09:45:37;;;;;;;3.37;1.10;;;;;;;;;;5001603;28;20210;-32
2022/06/10 09:48:11;;;;;;;5.93;1.30;;;;;;;;;;4998520;28;20382;-37
2022/06/10 09:50:43;;;;;;;2.50;1.27;;;;;;;;;;5000807;28;20278;-36
2022/06/10 09:53:18;;;;;;;3.03;1.30;;;;;;;;;;5010879;28;20207;-34
2022/06/10 09:55:51;;;;;;;2.97;1.30;;;;;;;;;;5002574;28;20213;-37
2022/06/10 09:58:44;;;;;;;2.77;1.20;;;;;;;;;;4998606;28;20199;-35
2022/06/10 10:01:16;;;;;;;5.27;1.47;;;;;;;;;;5002143;28;20223;-33
2022/06/10 10:03:57;;;;;;;1.57;1.00;;;;;;;;;;4997013;28;20229;-32
2022/06/10 10:06:30;;;;;;;2.27;1.17;;;;;;;;;;5005254;28;20233;-36
2022/06/10 10:09:02;;;;;;;6.77;1.50;;;;;;;;;;4992320;28;20285;-29
2022/06/10 10:11:33;;;;;;;2.03;0.93;;;;;;;;;;5005425;28;20223;-37
2022/06/10 10:14:04;;;;;;;2.20;1.00;;;;;;;;;;5007184;28;20203;-31
2022/06/10 10:16:39;;;;;;;1.77;1.20;;;;;;;;;;4998653;28;20225;-34
2022/06/10 10:19:17;;;;;;;3.50;1.10;;;;;;;;;;5005216;28;20202;-36
2022/06/10 10:21:49;;;;;;;4.43;2.20;;;;;;;;;;5000288;28;20215;-32
2022/06/10 10:24:19;;;;;;;4.37;1.43;;;;;;;;;;5004383;28;20343;-32
2022/06/10 10:26:51;;;;;;;1.60;1.07;;;;;;;;;;5002568;28;20234;-35
2022/06/10 10:29:20;;;;;;;3.07;1.20;;;;;;;;;;4998935;28;20204;-34
2022/06/10 10:31:49;;;;;;;4.80;1.20;;;;;;;;;;4997296;28;20206;-33
2022/06/10 10:34:19;;;;;;;5.33;1.27;;;;;;;;;;4994156;28;20204;-34
2022/06/10 10:36:50;;;;;;;7.37;2.13;;;;;;;;;;5003591;28;20311;-33
2022/06/10 10:39:25;;;;;;;3.10;1.27;;;;;;;;;;5003970;28;20285;-31
2022/06/10 10:41:53;;;;;;;2.50;1.00;;;;;;;;;;5004235;28;20204;-35
2022/06/10 10:44:25;;;;;;;1.67;0.90;;;;;;;;;;5006310;28;20206;-31
2022/06/10 10:46:59;;;;;;;3.30;1.00;;;;;;;;;;5003252;28;20242;-37
2022/06/10 10:49:28;;;;;;;2.57;1.37;;;;;;;;;;5004525;28;20208;-34
2022/06/10 10:51:57;;;;;;;2.20;1.10;;;;;;;;;;5004064;28;20214;-34
2022/06/10 10:54:27;;;;;;;1.70;0.80;;;;;;;;;;4997670;28;20214;-36
2022/06/10 10:56:55;;;;;;;1.83;1.03;;;;;;;;;;5011576;28;20236;-32
2022/06/10 10:59:33;;;;;;;6.37;1.67;;;;;;;;;;5007787;28;20206;-32
2022/06/10 11:02:01;;;;;;;3.63;1.70;;;;;;;;;;4999562;28;20245;-33
2022/06/10 11:04:29;;;;;;;2.87;1.17;;;;;;;;;;5009682;28;20202;-32
2022/06/10 11:07:03;;;;;;;2.83;1.03;;;;;;;;;;5006467;28;20232;-36
2022/06/10 11:09:30;;;;;;;2.93;1.30;;;;;;;;;;5023975;28;20197;-36
2022/06/10 11:11:58;;;;;;;1.87;0.97;;;;;;;;;;5008107;28;20229;-37
2022/06/10 11:14:27;;;;;;;2.93;0.87;;;;;;;;;;5008877;28;20226;-33
2022/06/10 11:17:15;;;;;;;4.40;1.20;;;;;;;;;;5011117;28;20238;-34
2022/06/10 11:19:44;;;;;;;2.67;0.90;;;;;;;;;;5001208;28;20238;-36
2022/06/10 11:22:20;;;;;;;4.00;1.17;;;;;;;;;;5004283;28;20206;-30
2022/06/10 11:24:50;;;;;;;0.83;0.83;;;;;;;;;;5004497;28;20203;-35
2022/06/10 11:27:35;;;;;;;2.40;0.87;;;;;;;;;;5002439;28;20212;-37
2022/06/10 11:30:05;;;;;;;2.13;1.23;;;;;;;;;;5002311;28;20209;-33
2022/06/10 11:32:35;;;;;;;2.57;0.80;;;;;;;;;;4994614;28;20289;-31
2022/06/10 11:35:05;;;;;;;2.60;1.10;;;;;;;;;;5003259;28;20255;-30
2022/06/10 11:37:36;;;;;;;2.07;1.10;;;;;;;;;;5003374;28;20219;-35
2022/06/10 11:40:07;;;;;;;3.63;1.00;;;;;;;;;;5008465;28;20242;-35
2022/06/10 11:42:37;;;;;;;1.63;0.87;;;;;;;;;;5003793;28;20228;-33
2022/06/10 11:45:09;;;;;;;1.47;0.70;;;;;;;;;;4999735;28;20251;-33
2022/06/10 11:47:40;;;;;;;2.10;1.00;;;;;;;;;;5003748;28;20317;-32
2022/06/10 11:50:11;;;;;;;2.37;0.83;;;;;;;;;;5003324;28;20293;-34
2022/06/10 11:52:43;;;;;;;2.87;1.00;;;;;;;;;;5000158;28;20198;-34
2022/06/10 11:55:14;;;;;;;1.97;0.90;;;;;;;;;;4996890;28;20214;-36
2022/06/10 12:00:33;;;;;;;0.87;0.77;;;;;;;;;;4999602;28;20242;-33
2022/06/10 12:03:04;;;;;;;2.57;1.10;;;;;;;;;;4995424;28;20251;-35
2022/06/10 12:05:36;;;;;;;1.67;1.13;;;;;;;;;;5005518;28;20213;-35
2022/06/10 12:08:08;;;;;;;2.37;0.83;;;;;;;;;;5004559;28;20219;-38
2022/06/10 12:10:40;;;;;;;1.60;0.97;;;;;;;;;;5002872;28;20199;-41
2022/06/10 12:13:11;;;;;;;2.83;1.17;;;;;;;;;;5000202;28;20199;-33
2022/06/10 12:15:44;;;;;;;2.60;1.47;;;;;;;;;;5005651;28;20293;-31
2022/06/10 12:18:12;;;;;;;3.10;1.20;;;;;;;;;;5000379;28;20203;-33
2022/06/10 12:20:43;;;;;;;2.47;0.93;;;;;;;;;;5001654;28;20213;-33
2022/06/10 12:23:14;;;;;;;1.30;1.00;;;;;;;;;;5017394;28;20204;-35
2022/06/10 12:25:53;;;;;;;0.90;0.80;;;;;;;;;;5017815;28;20493;-32
2022/06/10 12:28:26;;;;;;;3.70;1.03;;;;;;;;;;5003264;28;20199;-34
2022/06/10 12:31:00;;;;;;;1.93;1.00;;;;;;;;;;5005189;28;20199;-36
2022/06/10 12:33:33;;;;;;;2.13;1.37;;;;;;;;;;5004962;28;20251;-32
2022/06/10 12:36:00;;;;;;;4.20;1.20;;;;;;;;;;5003545;28;20216;-35
2022/06/10 12:38:34;;;;;;;1.70;1.10;;;;;;;;;;5016974;28;20218;-33
2022/06/10 12:41:03;;;;;;;3.87;1.07;;;;;;;;;;5005791;28;20195;-33
2022/06/10 12:43:31;;;;;;;3.77;1.20;;;;;;;;;;5005964;28;20209;-37
2022/06/10 12:46:00;;;;;;;2.20;0.90;;;;;;;;;;5004057;28;20261;-34
2022/06/10 12:48:28;;;;;;;1.73;0.93;;;;;;;;;;5006311;28;20318;-32
2022/06/10 12:50:57;;;;;;;3.17;1.10;;;;;;;;;;5001889;28;20289;-34
2022/06/10 12:53:40;;;;;;;2.40;0.97;;;;;;;;;;5007024;28;20203;-35
2022/06/10 12:56:18;;;;;;;1.57;0.90;;;;;;;;;;4998835;28;20219;-33
2022/06/10 12:58:47;;;;;;;1.53;0.73;;;;;;;;;;5003137;28;20204;-35
2022/06/10 13:01:18;;;;;;;1.10;1.00;;;;;;;;;;4999677;28;20219;-34
2022/06/10 13:03:48;;;;;;;2.37;1.00;;;;;;;;;;5001891;28;20208;-32
2022/06/10 13:06:26;;;;;;;1.50;0.80;;;;;;;;;;5011021;28;20211;-36
2022/06/10 13:08:57;;;;;;;0.97;0.87;;;;;;;;;;5011805;28;20253;-37
2022/06/10 13:11:40;;;;;;;1.00;0.70;;;;;;;;;;5001530;28;20203;-35
2022/06/10 13:14:16;;;;;;;2.03;0.83;;;;;;;;;;4998928;28;20211;-35
2022/06/10 13:16:46;;;;;;;1.27;0.87;;;;;;;;;;5002857;28;20277;-32
2022/06/10 13:19:30;;;;;;;0.83;0.70;;;;;;;;;;5011368;28;20211;-34
2022/06/10 13:21:57;;;;;;;1.10;0.70;;;;;;;;;;5012325;28;20209;-36
2022/06/10 13:24:26;;;;;;;2.53;0.93;;;;;;;;;;5009300;28;20214;-38
2022/06/10 13:26:57;;;;;;;2.00;0.87;;;;;;;;;;5004606;28;20223;-30
2022/06/10 13:29:25;;;;;;;1.10;1.00;;;;;;;;;;4998594;28;20196;-40
2022/06/10 13:31:54;;;;;;;1.10;1.00;;;;;;;;;;5001897;28;20266;-36
2022/06/10 13:34:23;;;;;;;2.10;1.07;;;;;;;;;;5001918;28;20238;-34
2022/06/10 13:39:24;;;;;;;1.75;1.00;;;;;;;;;;5003943;28;20231;-36
2022/06/10 13:41:53;;;;;;;3.80;1.05;;;;;;;;;;5000594;28;20243;-37
2022/06/10 13:44:24;;;;;;;5.55;1.02;;;;;;;;;;5009565;28;20207;-39
2022/06/10 13:46:52;;;;;;;3.08;1.00;;;;;;;;;;5002737;28;20241;-41
2022/06/10 13:49:42;;;;;;;1.25;0.80;;;;;;;;;;4998063;28;20200;-32
2022/06/10 13:52:18;;;;;;;2.80;1.00;;;;;;;;;;5006890;28;20202;-34
2022/06/10 13:54:45;;;;;;;2.95;1.00;;;;;;;;;;5002395;28;20246;-38
2022/06/10 13:57:22;;;;;;;2.47;1.00;;;;;;;;;;4999501;28;20218;-35
2022/06/10 13:59:58;;;;;;;2.22;0.98;;;;;;;;;;5008822;28;20210;-38
2022/06/10 14:02:27;;;;;;;1.90;1.05;;;;;;;;;;5002950;28;20207;-29
2022/06/10 14:04:55;;;;;;;1.40;1.23;;;;;;;;;;5003723;28;20196;-36
2022/06/10 14:07:25;;;;;;;3.25;1.00;;;;;;;;;;5005924;28;20226;-32
2022/06/10 14:09:52;;;;;;;2.40;0.77;;;;;;;;;;5007967;28;20196;-34
2022/06/10 14:12:25;;;;;;;2.20;1.15;;;;;;;;;;5002303;28;20203;-36
2022/06/10 14:14:53;;;;;;;1.05;0.90;;;;;;;;;;5005447;28;20195;-36
2022/06/10 14:17:22;;;;;;;4.18;1.38;;;;;;;;;;5000080;28;20215;-36
2022/06/10 14:19:52;;;;;;;1.83;1.10;;;;;;;;;;5002886;28;20235;-36
2022/06/10 14:22:20;;;;;;;3.63;1.40;;;;;;;;;;5005586;28;20210;-34
2022/06/10 14:25:03;;;;;;;2.85;1.10;;;;;;;;;;5010373;28;20199;-33
2022/06/10 14:27:31;;;;;;;1.88;1.17;;;;;;;;;;4992479;28;20223;-30
2022/06/10 14:30:00;;;;;;;1.15;1.05;;;;;;;;;;5010224;28;20228;-35
2022/06/10 14:32:30;;;;;;;1.52;0.90;;;;;;;;;;5000918;28;20282;-38
2022/06/10 14:34:59;;;;;;;3.17;1.00;;;;;;;;;;4993086;28;20218;-35
2022/06/10 14:37:29;;;;;;;2.63;0.80;;;;;;;;;;5007031;28;20317;-36
2022/06/10 14:40:22;;;;;;;1.63;1.00;;;;;;;;;;5002249;28;20246;-37
2022/06/10 14:43:04;;;;;;;3.20;1.13;;;;;;;;;;4994481;28;20299;-37
2022/06/10 14:45:34;;;;;;;3.10;1.30;;;;;;;;;;5004537;28;20203;-37
2022/06/10 14:48:03;;;;;;;1.42;0.90;;;;;;;;;;4996948;28;20239;-35
2022/06/10 14:50:31;;;;;;;2.35;1.10;;;;;;;;;;4998745;28;20206;-32
2022/06/10 14:52:58;;;;;;;1.92;1.10;;;;;;;;;;5010057;28;20209;-38
2022/06/10 14:55:27;;;;;;;1.48;0.90;;;;;;;;;;5006254;28;20214;-31
2022/06/10 14:57:57;;;;;;;3.22;1.10;;;;;;;;;;5001096;28;20199;-37
2022/06/10 15:00:24;;;;;;;3.67;0.90;;;;;;;;;;4992751;28;20218;-34
2022/06/10 15:02:52;;;;;;;2.40;1.15;;;;;;;;;;4998312;28;20204;-34
2022/06/10 15:08:06;;;;;;;1.42;1.00;;;;;;;;;;5010879;28;20218;-36
2022/06/10 15:10:35;;;;;;;1.65;1.00;;;;;;;;;;5009612;28;20204;-35
2022/06/10 15:13:03;;;;;;;1.92;1.10;;;;;;;;;;5000192;28;20191;-40
2022/06/10 15:15:30;;;;;;;1.60;1.13;;;;;;;;;;5009545;28;20204;-40
2022/06/10 15:17:57;;;;;;;1.85;1.08;;;;;;;;;;4997724;28;20199;-37
2022/06/10 15:20:25;;;;;;;3.83;1.33;;;;;;;;;;5008182;28;20206;-33
2022/06/10 15:22:53;;;;;;;2.08;0.88;;;;;;;;;;5010493;28;20228;-35
2022/06/10 15:25:24;;;;;;;5.03;1.15;;;;;;;;;;5004070;28;20199;-34
2022/06/10 15:27:52;;;;;;;2.05;1.30;;;;;;;;;;4994490;28;20224;-35